createdAt,value
2022-08-19T00:01:29.181Z,18.90
2022-08-19T00:04:02.839Z,18.90
2022-08-19T00:06:30.864Z,18.90
2022-08-19T00:09:01.010Z,18.80
2022-08-19T00:11:28.552Z,18.80
2022-08-19T00:13:57.454Z,18.80
2022-08-19T00:16:26.695Z,18.70
2022-08-19T00:18:56.093Z,18.70
2022-08-19T00:21:23.740Z,18.70
2022-08-19T00:26:17.851Z,18.80
2022-08-19T00:28:44.497Z,18.70
2022-08-19T00:33:39.023Z,18.60
2022-08-19T00:36:07.899Z,18.60
2022-08-19T00:38:37.424Z,18.70
2022-08-19T00:41:05.865Z,18.60
2022-08-19T00:43:32.847Z,18.60
2022-08-19T00:46:00.064Z,18.70
2022-08-19T00:48:26.876Z,18.60
2022-08-19T00:50:55.401Z,18.50
2022-08-19T00:53:25.051Z,18.60
2022-08-19T00:55:54.539Z,18.50
2022-08-19T00:58:25.461Z,18.50
2022-08-19T01:00:52.186Z,18.50
2022-08-19T01:08:17.200Z,18.50
2022-08-19T01:10:48.283Z,18.50
2022-08-19T01:13:23.328Z,18.50
2022-08-19T01:15:54.601Z,18.40
2022-08-19T01:18:22.496Z,18.50
2022-08-19T01:20:49.529Z,18.50
2022-08-19T01:23:17.323Z,18.50
2022-08-19T01:25:50.111Z,18.50
2022-08-19T01:28:34.058Z,18.50
2022-08-19T01:31:01.061Z,18.50
2022-08-19T01:33:35.130Z,18.50
2022-08-19T01:36:23.490Z,18.50
2022-08-19T01:38:50.480Z,18.50
2022-08-19T01:41:18.424Z,18.50
2022-08-19T01:44:09.807Z,18.50
2022-08-19T01:46:33.191Z,18.50
2022-08-19T01:49:00.414Z,18.50
2022-08-19T01:51:27.440Z,18.50
2022-08-19T01:53:55.812Z,18.50
2022-08-19T01:56:23.508Z,18.50
2022-08-19T01:58:55.032Z,18.50
2022-08-19T02:01:21.684Z,18.50
2022-08-19T02:03:48.353Z,18.50
2022-08-19T02:06:15.175Z,18.50
2022-08-19T02:08:41.858Z,18.50
2022-08-19T02:11:08.667Z,18.50
2022-08-19T02:13:35.750Z,18.50
2022-08-19T02:16:04.364Z,18.50
2022-08-19T02:18:31.240Z,18.40
2022-08-19T02:20:57.856Z,18.40
2022-08-19T02:23:24.437Z,18.40
2022-08-19T02:25:52.463Z,18.40
2022-08-19T02:28:19.256Z,18.40
2022-08-19T02:30:47.101Z,18.40
2022-08-19T02:33:13.697Z,18.40
2022-08-19T02:35:47.457Z,18.40
2022-08-19T02:38:26.934Z,18.40
2022-08-19T02:41:01.423Z,18.30
2022-08-19T02:43:33.748Z,18.40
2022-08-19T02:46:01.499Z,18.40
2022-08-19T02:48:28.380Z,18.40
2022-08-19T02:50:57.819Z,18.40
2022-08-19T02:53:27.401Z,18.40
2022-08-19T02:55:54.645Z,18.30
2022-08-19T02:58:22.714Z,18.30
2022-08-19T03:00:53.924Z,18.30
2022-08-19T03:03:20.984Z,18.30
2022-08-19T03:05:56.927Z,18.30
2022-08-19T03:08:25.104Z,18.30
2022-08-19T03:10:53.015Z,18.30
2022-08-19T03:13:19.641Z,18.30
2022-08-19T03:15:48.313Z,18.30
2022-08-19T03:18:16.228Z,18.30
2022-08-19T03:20:48.080Z,18.30
2022-08-19T03:23:15.473Z,18.20
2022-08-19T03:25:44.382Z,18.30
2022-08-19T03:28:15.735Z,18.30
2022-08-19T03:30:44.563Z,18.30
2022-08-19T03:33:18.129Z,18.20
2022-08-19T03:36:14.308Z,18.20
2022-08-19T03:38:47.143Z,18.30
2022-08-19T03:41:16.905Z,18.20
2022-08-19T03:43:44.091Z,18.20
2022-08-19T03:46:21.429Z,18.20
2022-08-19T03:48:49.079Z,18.20
2022-08-19T04:04:02.016Z,18.20
2022-08-19T04:06:33.878Z,18.10
2022-08-19T04:09:02.299Z,18.20
2022-08-19T09:22:01.412Z,18.10
2022-08-19T11:30:14.208Z,19.30
2022-08-19T11:35:15.445Z,21.40
2022-08-19T11:37:42.302Z,21.70
2022-08-19T11:45:27.712Z,21.60
2022-08-19T11:47:54.927Z,21.80
2022-08-19T11:52:50.539Z,21.80
2022-08-19T19:44:50.182Z,19.50
2022-08-19T19:50:10.573Z,19.40
2022-08-19T20:12:33.037Z,18.90
2022-08-19T20:17:26.676Z,18.90
2022-08-19T21:01:47.995Z,18.10
2022-08-19T21:04:14.772Z,18.00
2022-08-19T21:26:24.245Z,17.90
2022-08-19T21:28:50.920Z,17.90
2022-08-19T22:00:57.984Z,17.70
2022-08-19T22:05:52.568Z,17.60
2022-08-19T22:08:19.147Z,17.60
2022-08-19T22:10:45.715Z,17.50
2022-08-19T22:13:13.335Z,17.50
2022-08-19T22:18:07.674Z,17.50
2022-08-19T22:23:04.308Z,17.40
2022-08-19T22:25:37.301Z,17.40
2022-08-19T22:28:07.717Z,17.40
2022-08-19T22:30:39.832Z,17.40
2022-08-19T22:33:11.596Z,17.40
2022-08-19T22:35:40.326Z,17.40
2022-08-19T22:38:08.493Z,17.40
2022-08-19T22:40:39.349Z,17.40
2022-08-19T22:43:10.045Z,17.40
2022-08-19T22:45:37.025Z,17.40
2022-08-19T22:48:07.735Z,17.40
2022-08-19T22:50:40.359Z,17.50
2022-08-19T22:53:08.639Z,17.50
2022-08-19T22:55:37.307Z,17.50
2022-08-19T22:58:04.344Z,17.50
2022-08-19T23:00:31.799Z,17.50
2022-08-19T23:02:58.538Z,17.60
2022-08-19T23:05:28.011Z,17.60
2022-08-19T23:07:57.788Z,17.60
2022-08-19T23:10:28.026Z,17.60
2022-08-19T23:12:57.598Z,17.60
2022-08-19T23:15:27.003Z,17.60
2022-08-19T23:17:55.917Z,17.70
2022-08-19T23:20:27.310Z,17.60
2022-08-19T23:22:55.751Z,17.70
2022-08-19T23:25:26.151Z,17.70
2022-08-19T23:28:11.372Z,17.70
2022-08-19T23:30:42.445Z,17.70
2022-08-19T23:33:21.393Z,17.80
2022-08-19T23:35:48.667Z,17.80
2022-08-19T23:38:15.262Z,17.80
2022-08-19T23:40:42.132Z,17.80
2022-08-19T23:43:09.702Z,17.80
2022-08-19T23:45:50.953Z,17.80
2022-08-19T23:48:18.299Z,17.80
2022-08-19T23:50:45.589Z,17.80
2022-08-19T23:53:13.349Z,17.80
2022-08-19T23:55:42.937Z,17.80
2022-08-19T23:58:10.819Z,17.80
